Noi Bai International Airport
VVNB : now visible

Airfield :











YOU CAN JOIN US ON...

 
LOGIN :

Register | Disclaimer

   EN    FR    IT 

 









Legend :    VFR   Marginal VFR   IFR   Intensive IFR   Very Intensive IFR
Visi :
Ceiling :
>= 8 km
>= 3000ft
5 to 8 km
1000 to 3000 ft
1500m to 5 km
500 to 1000 ft
800 to 1500m
200 to 500 ft
< 800m
< 200 ft
Symbols :   Thunderstorms  Fog  Heavy snow  Heavy precipitations  Wind > 20 kt






- Airport Elevation : 39 ft
- IATA code : HAN


VVNB - Noi Bai International

CURRENT METAR :
  • 230630Z 10007KT 070V130 9999 BKN031 31/24 Q1007 NOSIG

EXPIRED METARs :
  • 230600Z 11007KT 080V140 9999 BKN030 31/24 Q1007 NOSIG
  • 230530Z 12007KT 080V160 9999 BKN028 31/24 Q1008 NOSIG
  • 230500Z 15007KT 110V180 9999 BKN028 30/24 Q1008 NOSIG
  • 230430Z 14005KT 100V180 9999 SCT028 BKN037 30/24 Q1009 NOSIG

TAF TAF VVNB
Valid from the 23 at 06:00 until the 24 at 06:00 UTC


230500Z 2306/2406 14006KT 9000 SCT020 BKN050
BECMG 2312/2314 05010KT
TEMPO 2312/2318 05010G25KT 3000 +TSRA SCT010 FEW027CB BKN050
TEMPO 2318/2324 4000 RA SCT010 BKN050



MET'MAP, your aeronautical weather chart ! - Copyright ORBIFLY December 2007 - Disclaimer

ORBIFLY MET'MAP TEAM :

Programming & Development : Alexandra Zaïnal
Concept & Development : Baudouin d'Aumeries
Co-Development & Prog : Marc-Olivier Méhu
Technical & hardware support : Manuel Goepfert

Contact : metmap@orbifly.com




SOURCES & CREDITS :

   NOAA       Earth
Advisory